KDTW/DTW METAR and TAF weather

Enter ICAO airport designator
Station Type Date Time Source
KDTW METAR 2022/01/28 04:46 UTC NOAA

KDTW 280446Z 35011G19KT 7SM -SN FEW013 SCT020 OVC035 M04/M08 A3015 RMK AO2 P0000 T10391078 $


Station Type Date Time Source
KDTW Decoded METAR 2022/01/28 04:46 UTC NOAA

DETROIT METROPOLITAN, MI, United States (KDTW) 42-14N 83-20W 195M
Jan 27, 2022 - 11:46 PM EST / 2022.01.28 0446 UTC
Wind: from the N (350 degrees) at 13 MPH (11 KT) gusting to 22 MPH (19 KT):0
Visibility: 7 mile(s):0
Sky conditions: overcast
Weather: light snow
Precipitation last hour: A trace
Temperature: 25.0 F (-3.9 C)
Windchill: 14 F (-10 C):1
Dew Point: 18.0 F (-7.8 C)
Relative Humidity: 74%
Pressure (altimeter): 30.15 in. Hg (1020 hPa)
ob: KDTW 280446Z 35011G19KT 7SM -SN FEW013 SCT020 OVC035 M04/M08 A3015 RMK AO2 P0000 T10391078
cycle: 5

Station Type Date Time Source
KDTW TAF 2022/01/28 02:09 UTC NOAA

TAF
AMD KDTW 280206Z 2802/2906 24012KT 3SM -SN OVC015
FM280300 35012G25KT 1 1/2SM -SN OVC010
FM280500 35012KT P6SM SCT030 BKN050
FM281000 36006KT P6SM SCT025
TEMPO 2812/2816 BKN025
FM281600 01008KT P6SM BKN028

Example: see airport list